sensor_id;sensor_type;location;lat;lon;timestamp;P1;durP1;ratioP1;P2;durP2;ratioP2
17404;SDS011;8820;54.604;18.226;2022-12-18T00:01:25;130.57;;;54.00;;
17404;SDS011;8820;54.604;18.226;2022-12-18T00:03:55;114.63;;;51.43;;
17404;SDS011;8820;54.604;18.226;2022-12-18T00:06:25;136.77;;;54.17;;
17404;SDS011;8820;54.604;18.226;2022-12-18T00:08:56;127.97;;;56.03;;
17404;SDS011;8820;54.604;18.226;2022-12-18T00:11:27;131.23;;;55.57;;
17404;SDS011;8820;54.604;18.226;2022-12-18T00:13:57;111.20;;;50.00;;
17404;SDS011;8820;54.604;18.226;2022-12-18T00:16:27;95.97;;;43.53;;
17404;SDS011;8820;54.604;18.226;2022-12-18T00:18:59;119.03;;;49.53;;
17404;SDS011;8820;54.604;18.226;2022-12-18T00:21:29;122.97;;;49.60;;
17404;SDS011;8820;54.604;18.226;2022-12-18T00:23:59;105.00;;;47.37;;
17404;SDS011;8820;54.604;18.226;2022-12-18T00:26:29;113.27;;;49.90;;
17404;SDS011;8820;54.604;18.226;2022-12-18T00:29:01;101.10;;;44.87;;
17404;SDS011;8820;54.604;18.226;2022-12-18T00:31:32;103.60;;;42.97;;
17404;SDS011;8820;54.604;18.226;2022-12-18T00:34:01;99.07;;;44.23;;
17404;SDS011;8820;54.604;18.226;2022-12-18T00:36:30;100.80;;;43.33;;
17404;SDS011;8820;54.604;18.226;2022-12-18T00:39:01;98.17;;;44.63;;
17404;SDS011;8820;54.604;18.226;2022-12-18T00:41:32;95.70;;;44.47;;
17404;SDS011;8820;54.604;18.226;2022-12-18T00:44:19;94.73;;;42.70;;
17404;SDS011;8820;54.604;18.226;2022-12-18T00:46:48;90.83;;;42.77;;
17404;SDS011;8820;54.604;18.226;2022-12-18T00:49:17;108.73;;;46.37;;
17404;SDS011;8820;54.604;18.226;2022-12-18T00:51:46;88.17;;;41.37;;
17404;SDS011;8820;54.604;18.226;2022-12-18T00:54:15;92.17;;;41.43;;
17404;SDS011;8820;54.604;18.226;2022-12-18T00:56:45;89.10;;;40.07;;
17404;SDS011;8820;54.604;18.226;2022-12-18T00:59:15;87.63;;;40.50;;
17404;SDS011;8820;54.604;18.226;2022-12-18T01:01:44;88.87;;;38.93;;
17404;SDS011;8820;54.604;18.226;2022-12-18T01:04:13;94.93;;;40.20;;
17404;SDS011;8820;54.604;18.226;2022-12-18T01:06:44;94.97;;;39.90;;
17404;SDS011;8820;54.604;18.226;2022-12-18T01:09:13;88.73;;;37.60;;
17404;SDS011;8820;54.604;18.226;2022-12-18T01:11:41;91.67;;;38.37;;
17404;SDS011;8820;54.604;18.226;2022-12-18T01:14:11;84.17;;;35.70;;
17404;SDS011;8820;54.604;18.226;2022-12-18T01:16:40;78.80;;;36.67;;
17404;SDS011;8820;54.604;18.226;2022-12-18T01:19:08;88.33;;;40.33;;
17404;SDS011;8820;54.604;18.226;2022-12-18T01:21:37;102.43;;;44.33;;
17404;SDS011;8820;54.604;18.226;2022-12-18T01:24:06;96.70;;;43.03;;
17404;SDS011;8820;54.604;18.226;2022-12-18T01:26:34;98.57;;;42.77;;
17404;SDS011;8820;54.604;18.226;2022-12-18T01:29:03;95.87;;;42.63;;
17404;SDS011;8820;54.604;18.226;2022-12-18T01:31:33;94.27;;;44.07;;
17404;SDS011;8820;54.604;18.226;2022-12-18T01:34:02;82.30;;;36.10;;
17404;SDS011;8820;54.604;18.226;2022-12-18T01:36:34;81.10;;;37.17;;
17404;SDS011;8820;54.604;18.226;2022-12-18T01:39:07;80.70;;;35.23;;
17404;SDS011;8820;54.604;18.226;2022-12-18T01:41:40;72.90;;;34.20;;
17404;SDS011;8820;54.604;18.226;2022-12-18T01:47:30;81.90;;;34.63;;
17404;SDS011;8820;54.604;18.226;2022-12-18T01:50:02;69.83;;;33.70;;
17404;SDS011;8820;54.604;18.226;2022-12-18T01:52:34;78.70;;;34.37;;
17404;SDS011;8820;54.604;18.226;2022-12-18T01:55:05;78.77;;;34.40;;
17404;SDS011;8820;54.604;18.226;2022-12-18T01:57:35;71.87;;;34.37;;
17404;SDS011;8820;54.604;18.226;2022-12-18T02:00:06;75.43;;;34.40;;
17404;SDS011;8820;54.604;18.226;2022-12-18T02:02:41;61.60;;;29.73;;
17404;SDS011;8820;54.604;18.226;2022-12-18T02:05:12;66.30;;;31.17;;
17404;SDS011;8820;54.604;18.226;2022-12-18T02:07:45;70.47;;;31.03;;
17404;SDS011;8820;54.604;18.226;2022-12-18T02:10:24;65.93;;;27.47;;
17404;SDS011;8820;54.604;18.226;2022-12-18T02:12:59;55.43;;;25.60;;
17404;SDS011;8820;54.604;18.226;2022-12-18T02:15:39;64.63;;;27.43;;
17404;SDS011;8820;54.604;18.226;2022-12-18T02:18:15;60.67;;;26.70;;
17404;SDS011;8820;54.604;18.226;2022-12-18T02:20:49;51.50;;;24.67;;
17404;SDS011;8820;54.604;18.226;2022-12-18T02:23:24;51.73;;;25.47;;
17404;SDS011;8820;54.604;18.226;2022-12-18T02:26:12;56.83;;;26.00;;
17404;SDS011;8820;54.604;18.226;2022-12-18T02:28:51;55.10;;;24.30;;
17404;SDS011;8820;54.604;18.226;2022-12-18T02:31:24;62.20;;;25.63;;
17404;SDS011;8820;54.604;18.226;2022-12-18T02:33:55;59.60;;;23.83;;
17404;SDS011;8820;54.604;18.226;2022-12-18T02:36:31;67.00;;;28.37;;
17404;SDS011;8820;54.604;18.226;2022-12-18T02:39:01;61.47;;;27.90;;
17404;SDS011;8820;54.604;18.226;2022-12-18T02:41:33;54.93;;;24.77;;
17404;SDS011;8820;54.604;18.226;2022-12-18T02:44:06;57.13;;;25.87;;
17404;SDS011;8820;54.604;18.226;2022-12-18T02:46:38;48.07;;;23.40;;
17404;SDS011;8820;54.604;18.226;2022-12-18T02:49:17;60.77;;;28.37;;
17404;SDS011;8820;54.604;18.226;2022-12-18T02:52:00;48.47;;;23.50;;
17404;SDS011;8820;54.604;18.226;2022-12-18T02:54:40;49.30;;;22.73;;
17404;SDS011;8820;54.604;18.226;2022-12-18T02:57:23;53.30;;;22.97;;
17404;SDS011;8820;54.604;18.226;2022-12-18T02:59:58;45.40;;;21.03;;
17404;SDS011;8820;54.604;18.226;2022-12-18T03:02:33;45.30;;;22.50;;
17404;SDS011;8820;54.604;18.226;2022-12-18T03:05:07;50.03;;;23.93;;
17404;SDS011;8820;54.604;18.226;2022-12-18T03:07:42;47.33;;;23.77;;
17404;SDS011;8820;54.604;18.226;2022-12-18T03:10:17;52.13;;;22.63;;
17404;SDS011;8820;54.604;18.226;2022-12-18T03:12:54;55.10;;;29.63;;
17404;SDS011;8820;54.604;18.226;2022-12-18T03:15:28;65.50;;;30.80;;
17404;SDS011;8820;54.604;18.226;2022-12-18T03:18:08;52.03;;;22.63;;
17404;SDS011;8820;54.604;18.226;2022-12-18T03:20:41;48.23;;;21.47;;
17404;SDS011;8820;54.604;18.226;2022-12-18T03:23:16;41.00;;;22.83;;
17404;SDS011;8820;54.604;18.226;2022-12-18T03:25:50;46.97;;;22.17;;
17404;SDS011;8820;54.604;18.226;2022-12-18T03:28:25;51.43;;;20.83;;
17404;SDS011;8820;54.604;18.226;2022-12-18T03:31:03;46.13;;;22.43;;
17404;SDS011;8820;54.604;18.226;2022-12-18T03:33:34;45.87;;;21.00;;
17404;SDS011;8820;54.604;18.226;2022-12-18T03:36:07;46.73;;;22.13;;
17404;SDS011;8820;54.604;18.226;2022-12-18T03:38:37;41.60;;;20.13;;
17404;SDS011;8820;54.604;18.226;2022-12-18T03:41:09;43.63;;;20.33;;
17404;SDS011;8820;54.604;18.226;2022-12-18T03:44:07;40.00;;;18.90;;
17404;SDS011;8820;54.604;18.226;2022-12-18T03:46:46;46.97;;;21.23;;
17404;SDS011;8820;54.604;18.226;2022-12-18T03:49:23;43.23;;;19.80;;
17404;SDS011;8820;54.604;18.226;2022-12-18T03:51:59;46.23;;;20.83;;
17404;SDS011;8820;54.604;18.226;2022-12-18T03:54:31;41.00;;;20.90;;
17404;SDS011;8820;54.604;18.226;2022-12-18T03:57:11;42.20;;;19.07;;
17404;SDS011;8820;54.604;18.226;2022-12-18T03:59:44;36.27;;;19.23;;
17404;SDS011;8820;54.604;18.226;2022-12-18T04:02:17;39.27;;;18.43;;
17404;SDS011;8820;54.604;18.226;2022-12-18T04:04:46;39.43;;;18.63;;
17404;SDS011;8820;54.604;18.226;2022-12-18T04:07:18;42.47;;;19.37;;
17404;SDS011;8820;54.604;18.226;2022-12-18T04:09:48;49.93;;;21.67;;
17404;SDS011;8820;54.604;18.226;2022-12-18T04:12:23;34.13;;;17.50;;
17404;SDS011;8820;54.604;18.226;2022-12-18T04:14:54;40.73;;;19.33;;
17404;SDS011;8820;54.604;18.226;2022-12-18T04:17:23;33.90;;;17.87;;
17404;SDS011;8820;54.604;18.226;2022-12-18T04:19:51;39.07;;;17.37;;
17404;SDS011;8820;54.604;18.226;2022-12-18T04:22:23;43.13;;;17.43;;
17404;SDS011;8820;54.604;18.226;2022-12-18T04:24:56;36.17;;;17.80;;
17404;SDS011;8820;54.604;18.226;2022-12-18T04:27:32;32.07;;;17.13;;
17404;SDS011;8820;54.604;18.226;2022-12-18T04:30:03;41.23;;;17.73;;
17404;SDS011;8820;54.604;18.226;2022-12-18T04:32:32;34.50;;;16.43;;
17404;SDS011;8820;54.604;18.226;2022-12-18T04:35:02;37.97;;;17.63;;
17404;SDS011;8820;54.604;18.226;2022-12-18T04:37:33;34.07;;;17.07;;
17404;SDS011;8820;54.604;18.226;2022-12-18T04:40:02;35.67;;;17.80;;
17404;SDS011;8820;54.604;18.226;2022-12-18T04:42:38;36.93;;;18.50;;
17404;SDS011;8820;54.604;18.226;2022-12-18T04:45:09;42.90;;;19.30;;
17404;SDS011;8820;54.604;18.226;2022-12-18T04:47:37;37.67;;;17.77;;
17404;SDS011;8820;54.604;18.226;2022-12-18T04:50:06;36.53;;;17.47;;
17404;SDS011;8820;54.604;18.226;2022-12-18T04:52:35;36.97;;;17.50;;
17404;SDS011;8820;54.604;18.226;2022-12-18T04:55:04;37.07;;;18.43;;
17404;SDS011;8820;54.604;18.226;2022-12-18T04:57:33;34.77;;;17.23;;
17404;SDS011;8820;54.604;18.226;2022-12-18T05:00:02;33.43;;;16.57;;
17404;SDS011;8820;54.604;18.226;2022-12-18T05:02:33;31.97;;;14.97;;
17404;SDS011;8820;54.604;18.226;2022-12-18T05:05:02;30.20;;;15.83;;
17404;SDS011;8820;54.604;18.226;2022-12-18T05:07:31;35.00;;;15.33;;
17404;SDS011;8820;54.604;18.226;2022-12-18T05:10:00;49.33;;;24.37;;
17404;SDS011;8820;54.604;18.226;2022-12-18T05:12:28;28.13;;;15.07;;
17404;SDS011;8820;54.604;18.226;2022-12-18T05:14:58;27.80;;;14.87;;
17404;SDS011;8820;54.604;18.226;2022-12-18T05:17:29;24.13;;;14.60;;
17404;SDS011;8820;54.604;18.226;2022-12-18T05:19:59;28.77;;;14.80;;
17404;SDS011;8820;54.604;18.226;2022-12-18T05:22:28;31.27;;;14.70;;
17404;SDS011;8820;54.604;18.226;2022-12-18T05:24:56;31.43;;;15.13;;
17404;SDS011;8820;54.604;18.226;2022-12-18T05:27:25;28.77;;;15.23;;
17404;SDS011;8820;54.604;18.226;2022-12-18T05:29:53;28.30;;;15.43;;
17404;SDS011;8820;54.604;18.226;2022-12-18T05:32:22;33.07;;;16.07;;
17404;SDS011;8820;54.604;18.226;2022-12-18T05:34:50;28.87;;;15.97;;
17404;SDS011;8820;54.604;18.226;2022-12-18T05:37:20;30.50;;;15.20;;
17404;SDS011;8820;54.604;18.226;2022-12-18T05:39:49;28.50;;;14.37;;
17404;SDS011;8820;54.604;18.226;2022-12-18T05:42:17;24.83;;;14.67;;
17404;SDS011;8820;54.604;18.226;2022-12-18T05:44:46;26.73;;;14.47;;
17404;SDS011;8820;54.604;18.226;2022-12-18T05:47:17;26.27;;;13.07;;
17404;SDS011;8820;54.604;18.226;2022-12-18T05:49:45;20.93;;;12.77;;
17404;SDS011;8820;54.604;18.226;2022-12-18T05:52:14;30.57;;;14.97;;
17404;SDS011;8820;54.604;18.226;2022-12-18T05:54:44;25.97;;;14.37;;
17404;SDS011;8820;54.604;18.226;2022-12-18T05:57:12;29.37;;;14.93;;
17404;SDS011;8820;54.604;18.226;2022-12-18T05:59:41;33.33;;;15.10;;
17404;SDS011;8820;54.604;18.226;2022-12-18T06:02:09;28.83;;;14.17;;
17404;SDS011;8820;54.604;18.226;2022-12-18T06:04:38;27.27;;;14.23;;
17404;SDS011;8820;54.604;18.226;2022-12-18T06:07:06;30.83;;;15.17;;
17404;SDS011;8820;54.604;18.226;2022-12-18T06:09:35;28.10;;;14.40;;
17404;SDS011;8820;54.604;18.226;2022-12-18T06:12:05;28.83;;;14.30;;
17404;SDS011;8820;54.604;18.226;2022-12-18T06:14:34;23.80;;;13.37;;
17404;SDS011;8820;54.604;18.226;2022-12-18T06:17:03;28.07;;;14.03;;
17404;SDS011;8820;54.604;18.226;2022-12-18T06:19:31;27.67;;;15.20;;
17404;SDS011;8820;54.604;18.226;2022-12-18T06:22:00;28.97;;;14.97;;
17404;SDS011;8820;54.604;18.226;2022-12-18T06:24:28;29.70;;;15.97;;
17404;SDS011;8820;54.604;18.226;2022-12-18T06:26:57;36.43;;;17.10;;
17404;SDS011;8820;54.604;18.226;2022-12-18T06:29:27;32.13;;;17.60;;
17404;SDS011;8820;54.604;18.226;2022-12-18T06:31:56;27.83;;;16.80;;
17404;SDS011;8820;54.604;18.226;2022-12-18T06:34:24;30.33;;;14.93;;
17404;SDS011;8820;54.604;18.226;2022-12-18T06:36:53;32.77;;;17.10;;
17404;SDS011;8820;54.604;18.226;2022-12-18T06:39:21;34.30;;;17.27;;
17404;SDS011;8820;54.604;18.226;2022-12-18T06:41:50;26.17;;;15.43;;
17404;SDS011;8820;54.604;18.226;2022-12-18T06:44:18;29.50;;;17.13;;
17404;SDS011;8820;54.604;18.226;2022-12-18T06:46:49;25.57;;;14.93;;
17404;SDS011;8820;54.604;18.226;2022-12-18T06:49:17;30.80;;;16.53;;
17404;SDS011;8820;54.604;18.226;2022-12-18T06:51:47;29.17;;;15.23;;
17404;SDS011;8820;54.604;18.226;2022-12-18T06:54:15;30.03;;;16.73;;
17404;SDS011;8820;54.604;18.226;2022-12-18T06:56:44;40.83;;;17.07;;
17404;SDS011;8820;54.604;18.226;2022-12-18T06:59:13;26.10;;;14.90;;
17404;SDS011;8820;54.604;18.226;2022-12-18T07:01:42;26.00;;;15.10;;
17404;SDS011;8820;54.604;18.226;2022-12-18T07:04:12;34.40;;;16.20;;
17404;SDS011;8820;54.604;18.226;2022-12-18T07:06:40;31.30;;;15.63;;
17404;SDS011;8820;54.604;18.226;2022-12-18T07:09:09;28.00;;;16.23;;
17404;SDS011;8820;54.604;18.226;2022-12-18T07:11:37;25.43;;;14.73;;
17404;SDS011;8820;54.604;18.226;2022-12-18T07:14:06;27.30;;;15.93;;
17404;SDS011;8820;54.604;18.226;2022-12-18T07:16:35;26.23;;;14.70;;
17404;SDS011;8820;54.604;18.226;2022-12-18T07:19:03;28.53;;;16.17;;
17404;SDS011;8820;54.604;18.226;2022-12-18T07:21:33;29.60;;;16.57;;
17404;SDS011;8820;54.604;18.226;2022-12-18T07:24:02;27.27;;;16.97;;
17404;SDS011;8820;54.604;18.226;2022-12-18T07:26:31;30.67;;;16.47;;
17404;SDS011;8820;54.604;18.226;2022-12-18T07:28:59;32.93;;;18.60;;
17404;SDS011;8820;54.604;18.226;2022-12-18T07:31:28;34.43;;;19.67;;
17404;SDS011;8820;54.604;18.226;2022-12-18T07:33:59;27.67;;;15.63;;
17404;SDS011;8820;54.604;18.226;2022-12-18T07:36:28;31.97;;;16.43;;
17404;SDS011;8820;54.604;18.226;2022-12-18T07:38:57;36.33;;;17.93;;
17404;SDS011;8820;54.604;18.226;2022-12-18T07:41:26;23.60;;;14.10;;
17404;SDS011;8820;54.604;18.226;2022-12-18T07:43:55;26.17;;;14.23;;
17404;SDS011;8820;54.604;18.226;2022-12-18T07:46:23;32.43;;;17.23;;
17404;SDS011;8820;54.604;18.226;2022-12-18T07:48:52;33.13;;;17.00;;
17404;SDS011;8820;54.604;18.226;2022-12-18T07:51:20;30.40;;;16.83;;
17404;SDS011;8820;54.604;18.226;2022-12-18T07:53:49;29.57;;;16.37;;
17404;SDS011;8820;54.604;18.226;2022-12-18T07:56:19;36.73;;;18.30;;
17404;SDS011;8820;54.604;18.226;2022-12-18T07:58:53;27.03;;;16.07;;
17404;SDS011;8820;54.604;18.226;2022-12-18T08:01:22;31.07;;;16.13;;
17404;SDS011;8820;54.604;18.226;2022-12-18T08:03:51;29.23;;;16.17;;
17404;SDS011;8820;54.604;18.226;2022-12-18T08:06:20;29.87;;;15.43;;
17404;SDS011;8820;54.604;18.226;2022-12-18T08:08:50;24.53;;;13.50;;
17404;SDS011;8820;54.604;18.226;2022-12-18T08:11:21;27.37;;;13.00;;
17404;SDS011;8820;54.604;18.226;2022-12-18T08:13:50;23.23;;;13.63;;
17404;SDS011;8820;54.604;18.226;2022-12-18T08:16:19;25.23;;;14.33;;
17404;SDS011;8820;54.604;18.226;2022-12-18T08:18:48;28.23;;;13.43;;
17404;SDS011;8820;54.604;18.226;2022-12-18T08:21:20;28.20;;;14.33;;
17404;SDS011;8820;54.604;18.226;2022-12-18T08:23:50;28.73;;;14.50;;
17404;SDS011;8820;54.604;18.226;2022-12-18T08:26:21;32.20;;;15.80;;
17404;SDS011;8820;54.604;18.226;2022-12-18T08:28:51;31.30;;;15.93;;
17404;SDS011;8820;54.604;18.226;2022-12-18T08:31:21;28.67;;;15.27;;
17404;SDS011;8820;54.604;18.226;2022-12-18T08:33:51;26.30;;;13.97;;
17404;SDS011;8820;54.604;18.226;2022-12-18T08:36:20;24.13;;;15.17;;
17404;SDS011;8820;54.604;18.226;2022-12-18T08:38:49;24.83;;;14.07;;
17404;SDS011;8820;54.604;18.226;2022-12-18T08:41:18;28.90;;;15.80;;
17404;SDS011;8820;54.604;18.226;2022-12-18T08:43:49;23.67;;;12.90;;
17404;SDS011;8820;54.604;18.226;2022-12-18T08:46:35;23.03;;;14.30;;
17404;SDS011;8820;54.604;18.226;2022-12-18T08:49:06;24.57;;;13.53;;
17404;SDS011;8820;54.604;18.226;2022-12-18T08:51:35;19.77;;;13.00;;
17404;SDS011;8820;54.604;18.226;2022-12-18T08:54:04;25.10;;;13.57;;
17404;SDS011;8820;54.604;18.226;2022-12-18T08:56:33;21.67;;;12.93;;
17404;SDS011;8820;54.604;18.226;2022-12-18T08:59:03;19.33;;;13.17;;
17404;SDS011;8820;54.604;18.226;2022-12-18T09:01:32;21.87;;;14.17;;
17404;SDS011;8820;54.604;18.226;2022-12-18T09:04:01;24.47;;;12.57;;
17404;SDS011;8820;54.604;18.226;2022-12-18T09:06:30;20.13;;;13.27;;
17404;SDS011;8820;54.604;18.226;2022-12-18T09:08:59;21.70;;;13.37;;
17404;SDS011;8820;54.604;18.226;2022-12-18T09:11:28;19.17;;;11.50;;
17404;SDS011;8820;54.604;18.226;2022-12-18T09:13:59;20.53;;;12.27;;
17404;SDS011;8820;54.604;18.226;2022-12-18T09:16:30;23.13;;;13.03;;
17404;SDS011;8820;54.604;18.226;2022-12-18T09:19:02;18.73;;;12.30;;
17404;SDS011;8820;54.604;18.226;2022-12-18T09:21:33;21.13;;;12.90;;
17404;SDS011;8820;54.604;18.226;2022-12-18T09:24:09;22.17;;;13.33;;
17404;SDS011;8820;54.604;18.226;2022-12-18T09:26:41;22.13;;;12.63;;
17404;SDS011;8820;54.604;18.226;2022-12-18T09:29:12;25.17;;;13.87;;
17404;SDS011;8820;54.604;18.226;2022-12-18T09:31:42;23.47;;;12.73;;
17404;SDS011;8820;54.604;18.226;2022-12-18T09:34:10;19.40;;;11.43;;
17404;SDS011;8820;54.604;18.226;2022-12-18T09:36:39;19.77;;;11.57;;
17404;SDS011;8820;54.604;18.226;2022-12-18T09:39:08;17.43;;;10.67;;
17404;SDS011;8820;54.604;18.226;2022-12-18T09:41:41;20.70;;;11.53;;
17404;SDS011;8820;54.604;18.226;2022-12-18T09:44:17;17.47;;;11.50;;
17404;SDS011;8820;54.604;18.226;2022-12-18T09:46:51;19.63;;;11.17;;
17404;SDS011;8820;54.604;18.226;2022-12-18T09:49:25;18.60;;;10.53;;
17404;SDS011;8820;54.604;18.226;2022-12-18T09:51:57;17.77;;;10.93;;
17404;SDS011;8820;54.604;18.226;2022-12-18T09:54:31;20.50;;;11.27;;
17404;SDS011;8820;54.604;18.226;2022-12-18T09:57:02;19.00;;;10.97;;
17404;SDS011;8820;54.604;18.226;2022-12-18T09:59:33;20.53;;;11.53;;
17404;SDS011;8820;54.604;18.226;2022-12-18T10:02:13;18.30;;;10.70;;
17404;SDS011;8820;54.604;18.226;2022-12-18T10:04:43;15.67;;;10.43;;
17404;SDS011;8820;54.604;18.226;2022-12-18T10:07:16;19.10;;;9.97;;
17404;SDS011;8820;54.604;18.226;2022-12-18T10:09:53;17.47;;;10.03;;
17404;SDS011;8820;54.604;18.226;2022-12-18T10:12:30;15.33;;;9.20;;
17404;SDS011;8820;54.604;18.226;2022-12-18T10:15:07;16.03;;;9.57;;
17404;SDS011;8820;54.604;18.226;2022-12-18T10:17:44;15.53;;;9.10;;
17404;SDS011;8820;54.604;18.226;2022-12-18T10:20:17;17.93;;;9.30;;
17404;SDS011;8820;54.604;18.226;2022-12-18T10:22:51;18.50;;;9.33;;
17404;SDS011;8820;54.604;18.226;2022-12-18T10:25:26;13.20;;;9.07;;
17404;SDS011;8820;54.604;18.226;2022-12-18T10:28:00;15.33;;;9.60;;
17404;SDS011;8820;54.604;18.226;2022-12-18T10:30:38;16.13;;;10.00;;
17404;SDS011;8820;54.604;18.226;2022-12-18T10:33:10;15.93;;;9.57;;
17404;SDS011;8820;54.604;18.226;2022-12-18T10:35:41;18.53;;;9.37;;
17404;SDS011;8820;54.604;18.226;2022-12-18T10:38:20;17.07;;;9.80;;
17404;SDS011;8820;54.604;18.226;2022-12-18T10:40:51;18.43;;;10.50;;
17404;SDS011;8820;54.604;18.226;2022-12-18T10:43:22;20.70;;;11.37;;
17404;SDS011;8820;54.604;18.226;2022-12-18T10:46:03;24.43;;;11.80;;
17404;SDS011;8820;54.604;18.226;2022-12-18T10:48:49;26.90;;;14.47;;
17404;SDS011;8820;54.604;18.226;2022-12-18T10:51:21;17.73;;;10.27;;
17404;SDS011;8820;54.604;18.226;2022-12-18T10:53:53;16.83;;;9.63;;
17404;SDS011;8820;54.604;18.226;2022-12-18T10:56:25;17.07;;;10.23;;
17404;SDS011;8820;54.604;18.226;2022-12-18T10:58:56;17.60;;;10.63;;
17404;SDS011;8820;54.604;18.226;2022-12-18T11:01:26;15.63;;;10.20;;
17404;SDS011;8820;54.604;18.226;2022-12-18T11:04:00;16.53;;;9.47;;
17404;SDS011;8820;54.604;18.226;2022-12-18T11:06:36;17.93;;;10.13;;
17404;SDS011;8820;54.604;18.226;2022-12-18T11:09:22;17.80;;;9.83;;
17404;SDS011;8820;54.604;18.226;2022-12-18T11:11:52;14.90;;;9.20;;
17404;SDS011;8820;54.604;18.226;2022-12-18T11:14:23;16.33;;;9.20;;
17404;SDS011;8820;54.604;18.226;2022-12-18T11:16:53;20.73;;;9.60;;
17404;SDS011;8820;54.604;18.226;2022-12-18T11:19:45;18.30;;;9.63;;
17404;SDS011;8820;54.604;18.226;2022-12-18T11:22:21;15.03;;;8.73;;
17404;SDS011;8820;54.604;18.226;2022-12-18T11:24:55;20.47;;;10.03;;
17404;SDS011;8820;54.604;18.226;2022-12-18T11:27:50;21.07;;;11.70;;
17404;SDS011;8820;54.604;18.226;2022-12-18T11:30:22;17.43;;;11.13;;
17404;SDS011;8820;54.604;18.226;2022-12-18T11:32:53;36.20;;;19.73;;
17404;SDS011;8820;54.604;18.226;2022-12-18T11:35:39;19.67;;;11.57;;
17404;SDS011;8820;54.604;18.226;2022-12-18T11:38:18;18.40;;;10.80;;
17404;SDS011;8820;54.604;18.226;2022-12-18T11:40:52;19.60;;;10.77;;
17404;SDS011;8820;54.604;18.226;2022-12-18T11:43:25;17.00;;;9.77;;
17404;SDS011;8820;54.604;18.226;2022-12-18T11:45:59;16.03;;;9.00;;
17404;SDS011;8820;54.604;18.226;2022-12-18T11:48:30;13.43;;;8.37;;
17404;SDS011;8820;54.604;18.226;2022-12-18T11:51:08;19.23;;;9.77;;
17404;SDS011;8820;54.604;18.226;2022-12-18T11:53:41;16.00;;;9.07;;
17404;SDS011;8820;54.604;18.226;2022-12-18T11:56:15;13.37;;;9.13;;
17404;SDS011;8820;54.604;18.226;2022-12-18T11:58:58;17.47;;;9.67;;
17404;SDS011;8820;54.604;18.226;2022-12-18T12:01:40;13.10;;;8.47;;
17404;SDS011;8820;54.604;18.226;2022-12-18T12:04:32;14.27;;;8.63;;
17404;SDS011;8820;54.604;18.226;2022-12-18T12:07:16;14.83;;;8.40;;
17404;SDS011;8820;54.604;18.226;2022-12-18T12:09:55;15.93;;;9.57;;
17404;SDS011;8820;54.604;18.226;2022-12-18T12:12:33;17.27;;;10.10;;
17404;SDS011;8820;54.604;18.226;2022-12-18T12:15:17;10.33;;;6.70;;
17404;SDS011;8820;54.604;18.226;2022-12-18T12:17:56;15.73;;;8.73;;
17404;SDS011;8820;54.604;18.226;2022-12-18T12:20:39;14.80;;;8.23;;
17404;SDS011;8820;54.604;18.226;2022-12-18T12:23:22;15.30;;;8.27;;
17404;SDS011;8820;54.604;18.226;2022-12-18T12:26:01;13.37;;;8.10;;
17404;SDS011;8820;54.604;18.226;2022-12-18T12:28:42;13.63;;;8.47;;
17404;SDS011;8820;54.604;18.226;2022-12-18T12:31:24;13.63;;;7.43;;
17404;SDS011;8820;54.604;18.226;2022-12-18T12:34:05;11.40;;;7.60;;
17404;SDS011;8820;54.604;18.226;2022-12-18T12:36:45;11.23;;;6.77;;
17404;SDS011;8820;54.604;18.226;2022-12-18T12:39:28;12.73;;;7.83;;
17404;SDS011;8820;54.604;18.226;2022-12-18T12:42:01;13.57;;;8.90;;
17404;SDS011;8820;54.604;18.226;2022-12-18T12:44:48;14.97;;;9.00;;
17404;SDS011;8820;54.604;18.226;2022-12-18T12:47:24;12.47;;;8.17;;
17404;SDS011;8820;54.604;18.226;2022-12-18T12:49:55;18.80;;;9.30;;
17404;SDS011;8820;54.604;18.226;2022-12-18T12:52:28;15.70;;;8.27;;
17404;SDS011;8820;54.604;18.226;2022-12-18T12:55:05;13.43;;;8.27;;
17404;SDS011;8820;54.604;18.226;2022-12-18T12:57:41;13.33;;;7.83;;
17404;SDS011;8820;54.604;18.226;2022-12-18T13:00:14;11.60;;;8.00;;
17404;SDS011;8820;54.604;18.226;2022-12-18T13:02:46;12.90;;;8.03;;
17404;SDS011;8820;54.604;18.226;2022-12-18T13:05:19;13.20;;;7.77;;
17404;SDS011;8820;54.604;18.226;2022-12-18T13:07:54;12.93;;;7.57;;
17404;SDS011;8820;54.604;18.226;2022-12-18T13:10:32;13.80;;;7.97;;
17404;SDS011;8820;54.604;18.226;2022-12-18T13:13:04;15.10;;;9.07;;
17404;SDS011;8820;54.604;18.226;2022-12-18T13:15:37;14.33;;;7.43;;
17404;SDS011;8820;54.604;18.226;2022-12-18T13:18:14;12.73;;;7.37;;
17404;SDS011;8820;54.604;18.226;2022-12-18T13:21:02;11.73;;;6.93;;
17404;SDS011;8820;54.604;18.226;2022-12-18T13:23:33;12.33;;;6.77;;
17404;SDS011;8820;54.604;18.226;2022-12-18T13:29:01;12.80;;;6.57;;
17404;SDS011;8820;54.604;18.226;2022-12-18T13:34:35;13.63;;;7.03;;
17404;SDS011;8820;54.604;18.226;2022-12-18T13:43:37;14.20;;;6.97;;
17404;SDS011;8820;54.604;18.226;2022-12-18T13:46:20;11.27;;;7.23;;
17404;SDS011;8820;54.604;18.226;2022-12-18T13:49:00;9.77;;;7.00;;
17404;SDS011;8820;54.604;18.226;2022-12-18T13:51:33;8.30;;;6.20;;
17404;SDS011;8820;54.604;18.226;2022-12-18T13:54:06;9.07;;;6.13;;
17404;SDS011;8820;54.604;18.226;2022-12-18T13:56:47;14.40;;;7.90;;
17404;SDS011;8820;54.604;18.226;2022-12-18T13:59:19;12.30;;;7.17;;
17404;SDS011;8820;54.604;18.226;2022-12-18T14:01:51;8.67;;;5.93;;
17404;SDS011;8820;54.604;18.226;2022-12-18T14:04:23;13.83;;;8.50;;
17404;SDS011;8820;54.604;18.226;2022-12-18T14:06:57;13.90;;;8.37;;
17404;SDS011;8820;54.604;18.226;2022-12-18T14:09:34;12.67;;;8.13;;
17404;SDS011;8820;54.604;18.226;2022-12-18T14:12:05;14.60;;;8.93;;
17404;SDS011;8820;54.604;18.226;2022-12-18T14:14:53;12.40;;;7.73;;
17404;SDS011;8820;54.604;18.226;2022-12-18T14:17:21;10.70;;;6.90;;
17404;SDS011;8820;54.604;18.226;2022-12-18T14:19:51;12.53;;;7.20;;
17404;SDS011;8820;54.604;18.226;2022-12-18T14:22:20;10.87;;;6.97;;
17404;SDS011;8820;54.604;18.226;2022-12-18T14:25:05;13.33;;;8.43;;
17404;SDS011;8820;54.604;18.226;2022-12-18T14:27:43;13.93;;;7.97;;
17404;SDS011;8820;54.604;18.226;2022-12-18T14:30:28;17.00;;;9.67;;
17404;SDS011;8820;54.604;18.226;2022-12-18T14:33:02;13.07;;;8.37;;
17404;SDS011;8820;54.604;18.226;2022-12-18T14:35:31;11.87;;;7.80;;
17404;SDS011;8820;54.604;18.226;2022-12-18T14:38:19;15.67;;;8.57;;
17404;SDS011;8820;54.604;18.226;2022-12-18T14:40:57;12.37;;;7.77;;
17404;SDS011;8820;54.604;18.226;2022-12-18T14:43:26;13.80;;;8.43;;
17404;SDS011;8820;54.604;18.226;2022-12-18T14:45:58;11.93;;;7.47;;
17404;SDS011;8820;54.604;18.226;2022-12-18T14:48:33;14.77;;;8.70;;
17404;SDS011;8820;54.604;18.226;2022-12-18T14:51:12;14.57;;;8.67;;
17404;SDS011;8820;54.604;18.226;2022-12-18T14:53:45;11.80;;;7.77;;
17404;SDS011;8820;54.604;18.226;2022-12-18T14:56:20;14.27;;;7.93;;
17404;SDS011;8820;54.604;18.226;2022-12-18T14:58:52;11.43;;;8.27;;
17404;SDS011;8820;54.604;18.226;2022-12-18T15:01:25;12.67;;;7.23;;
17404;SDS011;8820;54.604;18.226;2022-12-18T15:03:56;13.17;;;7.13;;
17404;SDS011;8820;54.604;18.226;2022-12-18T15:06:26;13.97;;;8.27;;
17404;SDS011;8820;54.604;18.226;2022-12-18T15:08:58;13.73;;;7.57;;
17404;SDS011;8820;54.604;18.226;2022-12-18T15:11:30;16.73;;;8.40;;